Terminal Aerodrome Forecast
Issued by NWS

Home | Current Version | Previous Version | Text Only | Print | Product List | Glossary On
Versions: 1 2 3 4 5 6 7 8 9 10 11 12 13 14 15 16 17 18 19
627
FTUS41 KGYX 180520
TAFLEB
TAF
KLEB 180520Z 1806/1906 00000KT 1 1/2SM -SN BR OVC016
      TEMPO 1806/1807 1SM -SN
     FM180700 VRB03KT 2SM -SN OVC005
     FM181500 03004KT 3SM -SHSN BR OVC012
     FM182300 05002KT 5SM BR OVC012 PROB30 1823/1824 2SM -SN BR
      OVC015=

USA.gov is the U.S. government's official web portal to all federal, state and local government web resources and services.